Guthrie, Minnesota
Current Conditions -  °F | °C
As of 10:55 AM on Saturday 25 Oct 2014 (Local Time) from KY49 Reporting Station
Clear Clear  
Wind Chill: 50°   Ceiling: Unl
Heat Index: 50°   Visibility: 10mi
Dew Point: 29°   Wind: 15mph
Humidity: 45%   Direction: 300°WNW
Pressure: 30"   Gusts: 25mph
Location:  47.2392°N, 94.7928°W
Report Text: KY49 251555Z AUTO 30013G22KT 10SM CLR 10/M01 A3000 RMK AO2 T01001014
Loading
Personal Weather Stations






























Interactive Weather Map
Tropical Storm Tracking
New forecast layout! Learn more

10-Day Weather Forecast

Advertisements
Track Severe Weather on mobile